Houlton, Houlton International Airport (KHUL)

NameHoulton International Airport
CityHoulton
CountryUnited States
ICAOKHUL
IATAHUL
Altitude149 m
CoordinatesGoogle Map
Live Air TrafficLiveATC.net
METARKHUL 170053Z AUTO 28012G17KT 10SM FEW027 FEW120 M06/M10 A2973 RMK AO2 SLP077 T10561100 $
2019-02-17 00:53:00 Wind: West (280°) 6.17 m/s - Visibility: 16093.4 m - Temperature: -6 °C - Dew point: -10 °C - Humidity: 73.6% - Pressure: 1006.77 hPa
Statistics

The table below shows the detailed information of all flights to/from Houlton, Houlton International Airport (KHUL).